createdAt,value
2022-08-18T00:01:16.846Z,20.63
2022-08-18T00:03:56.143Z,21.50
2022-08-18T00:06:29.921Z,20.30
2022-08-18T00:09:00.277Z,21.38
2022-08-18T00:11:41.444Z,20.73
2022-08-18T00:14:19.683Z,19.65
2022-08-18T00:16:52.312Z,20.70
2022-08-18T00:19:43.424Z,20.15
2022-08-18T00:22:14.827Z,20.00
2022-08-18T00:24:48.291Z,20.08
2022-08-18T00:27:23.956Z,19.73
2022-08-18T00:29:58.426Z,21.33
2022-08-18T00:32:29.182Z,22.00
2022-08-18T00:34:57.511Z,19.92
2022-08-18T00:37:26.309Z,19.02
2022-08-18T00:39:55.693Z,20.15
2022-08-18T00:42:31.016Z,20.15
2022-08-18T00:45:02.454Z,21.88
2022-08-18T00:47:42.030Z,21.30
2022-08-18T00:50:24.434Z,20.52
2022-08-18T00:52:55.331Z,20.23
2022-08-18T00:55:24.798Z,20.60
2022-08-18T00:58:01.371Z,20.70
2022-08-18T01:00:30.205Z,21.75
2022-08-18T01:03:02.485Z,21.75
2022-08-18T01:05:38.145Z,20.90
2022-08-18T01:08:10.562Z,22.35
2022-08-18T01:10:39.736Z,21.08
2022-08-18T01:13:10.310Z,20.60
2022-08-18T01:15:39.593Z,21.20
2022-08-18T01:18:37.668Z,21.55
2022-08-18T01:21:29.341Z,23.30
2022-08-18T01:24:00.094Z,22.42
2022-08-18T01:26:29.081Z,24.20
2022-08-18T01:29:06.189Z,21.20
2022-08-18T01:31:38.416Z,22.23
2022-08-18T01:34:08.271Z,23.77
2022-08-18T01:36:38.612Z,24.25
2022-08-18T01:44:08.879Z,24.45
2022-08-18T01:46:37.701Z,23.15
2022-08-18T01:49:08.229Z,24.17
2022-08-18T01:51:39.966Z,25.70
2022-08-18T01:54:15.751Z,23.83
2022-08-18T01:56:44.593Z,24.48
2022-08-18T01:59:14.913Z,25.35
2022-08-18T02:01:50.425Z,23.35
2022-08-18T02:04:41.571Z,25.73
2022-08-18T02:07:12.745Z,24.35
2022-08-18T02:09:44.676Z,24.80
2022-08-18T02:12:14.428Z,24.02
2022-08-18T02:14:43.384Z,25.55
2022-08-18T02:17:13.663Z,26.58
2022-08-18T02:19:44.640Z,26.38
2022-08-18T02:22:15.872Z,24.77
2022-08-18T02:24:46.491Z,26.40
2022-08-18T02:27:16.533Z,25.33
2022-08-18T02:29:45.526Z,24.92
2022-08-18T02:32:14.371Z,25.50
2022-08-18T02:34:42.985Z,24.17
2022-08-18T02:37:15.308Z,25.42
2022-08-18T02:39:46.256Z,24.65
2022-08-18T02:42:16.584Z,25.30
2022-08-18T02:44:45.822Z,24.77
2022-08-18T02:47:14.600Z,24.30
2022-08-18T02:49:43.604Z,24.10
2022-08-18T02:52:12.246Z,25.20
2022-08-18T02:54:40.976Z,24.08
2022-08-18T02:57:13.005Z,25.38
2022-08-18T02:59:42.717Z,25.48
2022-08-18T03:02:16.045Z,26.33
2022-08-18T03:04:44.435Z,23.90
2022-08-18T03:07:13.155Z,25.17
2022-08-18T03:09:42.536Z,24.73
2022-08-18T03:12:12.851Z,24.40
2022-08-18T03:17:10.926Z,23.77
2022-08-18T03:19:39.539Z,24.90
2022-08-18T03:22:27.655Z,24.77
2022-08-18T03:24:58.291Z,23.90
2022-08-18T03:27:28.510Z,24.55
2022-08-18T03:29:58.809Z,24.52
2022-08-18T03:32:27.853Z,25.75
2022-08-18T03:34:56.159Z,25.88
2022-08-18T03:37:24.909Z,25.70
2022-08-18T03:39:53.666Z,26.02
2022-08-18T03:42:22.576Z,24.10
2022-08-18T03:44:52.929Z,26.30
2022-08-18T03:49:50.135Z,25.45
2022-08-18T03:52:18.731Z,26.23
2022-08-18T03:54:48.623Z,24.75
2022-08-18T03:57:17.349Z,25.17
2022-08-18T03:59:46.354Z,23.80
2022-08-18T04:02:16.482Z,24.27
2022-08-18T04:04:44.877Z,24.35
2022-08-18T04:07:17.312Z,23.27
2022-08-18T04:09:47.030Z,23.77
2022-08-18T04:12:17.511Z,24.73
2022-08-18T04:14:49.567Z,23.23
2022-08-18T04:17:24.455Z,23.55
2022-08-18T04:19:53.407Z,24.13
2022-08-18T04:22:22.762Z,23.60
2022-08-18T04:24:51.739Z,25.25
2022-08-18T04:27:21.606Z,23.33
2022-08-18T04:29:50.985Z,24.40
2022-08-18T04:32:21.096Z,24.50
2022-08-18T04:34:49.549Z,23.13
2022-08-18T04:37:18.559Z,24.27
2022-08-18T04:39:47.441Z,23.58
2022-08-18T04:42:16.206Z,25.98
2022-08-18T04:44:45.090Z,24.50
2022-08-18T04:47:13.855Z,24.55
2022-08-18T04:49:44.731Z,23.42
2022-08-18T04:52:40.835Z,24.70
2022-08-18T04:55:11.094Z,25.13
2022-08-18T04:57:42.735Z,26.40
2022-08-18T05:00:13.588Z,25.92
2022-08-18T05:02:42.805Z,26.10
2022-08-18T05:05:13.108Z,26.13
2022-08-18T05:07:46.238Z,26.73
2022-08-18T05:10:17.940Z,25.95
2022-08-18T05:12:49.100Z,26.35
2022-08-18T05:15:19.044Z,27.25
2022-08-18T05:17:50.385Z,26.20
2022-08-18T05:20:23.364Z,27.45
2022-08-18T05:22:51.782Z,27.70
2022-08-18T05:25:21.061Z,28.85
2022-08-18T05:27:49.919Z,29.05
2022-08-18T05:30:18.912Z,30.80
2022-08-18T05:32:50.433Z,29.70
2022-08-18T05:35:26.679Z,28.60
2022-08-18T05:38:24.874Z,29.98
2022-08-18T05:41:07.348Z,28.38
2022-08-18T05:43:36.991Z,29.48
2022-08-18T05:46:21.829Z,29.75
2022-08-18T05:48:51.568Z,27.50
2022-08-18T05:51:28.045Z,27.38
2022-08-18T05:54:19.540Z,28.75
2022-08-18T05:56:48.641Z,27.85
2022-08-18T05:59:21.815Z,27.50
2022-08-18T06:01:54.636Z,29.75
2022-08-18T06:04:36.529Z,27.60
2022-08-18T06:07:10.368Z,27.52
2022-08-18T06:09:44.532Z,26.30
2022-08-18T06:12:21.461Z,27.42
2022-08-18T06:14:50.303Z,25.27
2022-08-18T06:17:43.796Z,24.38
2022-08-18T06:20:20.509Z,24.85
2022-08-18T06:22:56.647Z,23.48
2022-08-18T06:25:30.445Z,22.58
2022-08-18T06:28:05.963Z,21.48
2022-08-18T06:30:47.299Z,23.48
2022-08-18T06:33:29.820Z,20.65
2022-08-18T06:36:02.815Z,20.73
2022-08-18T06:38:52.873Z,18.80
2022-08-18T06:41:41.942Z,19.25
2022-08-18T06:44:16.450Z,19.42
2022-08-18T06:46:47.922Z,19.08
2022-08-18T06:49:36.993Z,20.73
2022-08-18T06:52:26.980Z,19.95
2022-08-18T06:54:59.120Z,21.17
2022-08-18T06:57:31.767Z,20.65
2022-08-18T07:00:05.176Z,18.30
2022-08-18T07:02:44.079Z,16.42
2022-08-18T07:05:24.284Z,19.08
2022-08-18T07:08:19.904Z,16.98
2022-08-18T07:10:52.134Z,13.57
2022-08-18T07:13:26.652Z,13.70
2022-08-18T07:15:57.476Z,12.27
2022-08-18T07:18:28.244Z,10.20
2022-08-18T07:20:59.166Z,11.55
2022-08-18T07:23:33.977Z,12.27
2022-08-18T07:26:08.883Z,11.45
2022-08-18T07:28:41.931Z,10.55
2022-08-18T07:31:26.130Z,10.63
2022-08-18T07:33:59.388Z,9.82
2022-08-18T07:36:31.691Z,10.32
2022-08-18T07:39:06.321Z,8.80
2022-08-18T07:41:41.735Z,8.55
2022-08-18T07:44:18.475Z,7.45
2022-08-18T07:46:53.636Z,7.82
2022-08-18T07:49:24.911Z,8.20
2022-08-18T07:51:58.560Z,9.25
2022-08-18T07:54:50.442Z,8.35
2022-08-18T07:57:28.336Z,8.20
2022-08-18T08:00:10.482Z,8.48
2022-08-18T08:02:59.057Z,7.03
2022-08-18T08:05:39.883Z,7.72
2022-08-18T08:08:19.130Z,7.60
2022-08-18T08:11:06.296Z,7.70
2022-08-18T08:13:55.323Z,8.15
2022-08-18T08:16:32.936Z,8.35
2022-08-18T08:19:12.188Z,7.55
2022-08-18T08:24:16.860Z,8.27
2022-08-18T08:26:52.786Z,7.43
2022-08-18T08:29:29.126Z,9.07
2022-08-18T08:32:03.576Z,7.40
2022-08-18T08:34:36.793Z,8.15
2022-08-18T08:37:08.544Z,7.45
2022-08-18T08:39:40.091Z,8.02
2022-08-18T08:42:31.546Z,8.63
2022-08-18T08:45:06.597Z,7.68
2022-08-18T08:47:38.774Z,8.45
2022-08-18T08:50:11.151Z,8.32
2022-08-18T08:52:43.660Z,8.32
2022-08-18T08:55:18.915Z,8.23
2022-08-18T08:57:52.528Z,8.90
2022-08-18T09:00:23.252Z,7.68
2022-08-18T09:03:03.598Z,8.05
2022-08-18T09:05:37.334Z,8.10
2022-08-18T09:08:36.098Z,7.45
2022-08-18T09:11:29.853Z,8.30
2022-08-18T09:14:14.439Z,7.60
2022-08-18T09:16:54.178Z,7.07
2022-08-18T09:19:33.204Z,6.85
2022-08-18T09:22:06.135Z,6.50
2022-08-18T09:24:41.505Z,6.38
2022-08-18T09:27:16.745Z,7.22
2022-08-18T09:29:52.673Z,7.65
2022-08-18T09:32:45.118Z,6.60
2022-08-18T09:35:31.112Z,6.68
2022-08-18T09:38:25.990Z,6.88
2022-08-18T09:41:16.083Z,6.68
2022-08-18T09:47:01.315Z,6.18
2022-08-18T09:49:51.124Z,6.70
2022-08-18T09:52:57.794Z,5.53
2022-08-18T09:56:01.129Z,5.90
2022-08-18T09:58:52.852Z,6.22
2022-08-18T10:01:39.971Z,7.25
2022-08-18T10:04:31.309Z,6.50
2022-08-18T10:07:24.220Z,5.90
2022-08-18T10:10:03.779Z,6.28
2022-08-18T10:12:59.865Z,6.32
2022-08-18T10:15:41.627Z,5.90
2022-08-18T10:18:32.646Z,5.90
2022-08-18T10:21:09.525Z,6.47
2022-08-18T10:24:14.649Z,6.10
2022-08-18T10:27:13.080Z,5.60
2022-08-18T10:29:59.712Z,6.35
2022-08-18T10:32:52.185Z,6.30
2022-08-18T10:35:58.561Z,5.97
2022-08-18T10:38:46.165Z,5.45
2022-08-18T10:41:25.731Z,5.47
2022-08-18T10:43:57.670Z,5.78
2022-08-18T10:46:32.654Z,4.82
2022-08-18T10:49:08.865Z,5.60
2022-08-18T10:52:01.357Z,5.82
2022-08-18T10:57:35.996Z,5.65
2022-08-18T11:00:12.095Z,6.10
2022-08-18T11:03:49.942Z,5.88
2022-08-18T11:05:47.696Z,5.80
2022-08-18T11:08:18.987Z,5.82
2022-08-18T11:11:27.572Z,6.00
2022-08-18T11:13:51.597Z,5.65
2022-08-18T11:16:30.041Z,5.38
2022-08-18T11:19:00.486Z,5.55
2022-08-18T11:21:41.950Z,5.72
2022-08-18T11:24:15.988Z,5.80
2022-08-18T11:26:52.577Z,5.78
2022-08-18T11:29:32.139Z,7.28
2022-08-18T11:32:05.737Z,7.05
2022-08-18T11:34:41.305Z,6.22
2022-08-18T11:37:28.355Z,5.20
2022-08-18T11:41:09.819Z,6.82
2022-08-18T11:46:04.583Z,5.75
2022-08-18T11:51:30.387Z,5.22
2022-08-18T11:54:01.158Z,5.30
2022-08-18T11:56:35.763Z,5.53
2022-08-18T11:59:08.001Z,6.18
2022-08-18T12:01:51.301Z,5.13
2022-08-18T12:04:25.749Z,5.60
2022-08-18T12:07:06.785Z,5.10
2022-08-18T12:12:31.650Z,4.88
2022-08-18T12:15:13.969Z,5.50
2022-08-18T12:17:52.282Z,5.07
2022-08-18T12:20:23.041Z,5.10
2022-08-18T12:22:52.330Z,5.72
2022-08-18T12:25:24.592Z,5.03
2022-08-18T12:27:54.774Z,6.50
2022-08-18T12:30:23.681Z,5.25
2022-08-18T12:35:44.763Z,6.45
2022-08-18T12:38:15.788Z,4.57
2022-08-18T12:40:44.319Z,5.80
2022-08-18T12:43:13.405Z,5.10
2022-08-18T12:45:42.632Z,5.18
2022-08-18T12:48:12.657Z,6.18
2022-08-18T12:50:54.134Z,5.40
2022-08-18T12:53:29.921Z,5.82
2022-08-18T12:56:21.056Z,6.53
2022-08-18T12:58:50.082Z,5.97
2022-08-18T13:01:19.436Z,5.60
2022-08-18T13:03:52.741Z,6.22
2022-08-18T13:06:40.825Z,4.97
2022-08-18T13:09:16.624Z,5.47
2022-08-18T13:12:02.883Z,5.35
2022-08-18T13:14:31.566Z,5.53
2022-08-18T13:17:00.659Z,5.03
2022-08-18T13:19:32.042Z,5.53
2022-08-18T13:22:02.010Z,4.80
2022-08-18T13:24:32.554Z,5.13
2022-08-18T13:27:01.836Z,5.50
2022-08-18T13:29:30.614Z,6.82
2022-08-18T13:31:59.747Z,4.90
2022-08-18T13:34:29.798Z,5.55
2022-08-18T13:37:00.523Z,6.05
2022-08-18T13:39:33.823Z,5.75
2022-08-18T13:42:21.759Z,5.50
2022-08-18T13:44:55.244Z,5.72
2022-08-18T13:47:27.647Z,5.68
2022-08-18T13:49:58.309Z,5.53
2022-08-18T13:52:41.154Z,5.38
2022-08-18T13:55:16.837Z,5.30
2022-08-18T13:57:49.968Z,5.40
2022-08-18T14:00:29.735Z,5.70
2022-08-18T14:03:02.137Z,5.35
2022-08-18T14:05:36.721Z,5.10
2022-08-18T14:08:22.182Z,5.30
2022-08-18T14:10:54.248Z,5.15
2022-08-18T14:13:24.541Z,5.50
2022-08-18T14:15:54.913Z,5.00
2022-08-18T14:18:29.082Z,5.72
2022-08-18T14:21:22.913Z,4.90
2022-08-18T14:24:14.450Z,5.38
2022-08-18T14:26:50.077Z,5.55
2022-08-18T14:29:45.529Z,4.50
2022-08-18T14:34:37.364Z,6.13
2022-08-18T14:37:06.003Z,5.03
2022-08-18T14:39:40.226Z,4.57
2022-08-18T14:42:09.290Z,5.43
2022-08-18T14:44:41.622Z,5.35
2022-08-18T14:47:24.228Z,5.55
2022-08-18T14:49:53.113Z,5.97
2022-08-18T14:52:24.267Z,5.95
2022-08-18T14:57:24.056Z,5.30
2022-08-18T14:59:54.726Z,5.43
2022-08-18T15:02:26.047Z,5.60
2022-08-18T15:04:57.711Z,5.30
2022-08-18T15:07:26.835Z,6.60
2022-08-18T15:10:14.795Z,6.38
2022-08-18T15:12:46.079Z,6.40
2022-08-18T15:17:50.321Z,5.45
2022-08-18T15:20:28.665Z,5.22
2022-08-18T15:23:25.113Z,5.35
2022-08-18T15:25:59.757Z,5.22
2022-08-18T15:28:29.134Z,5.80
2022-08-18T15:33:51.033Z,6.43
2022-08-18T15:36:28.768Z,6.13
2022-08-18T15:38:58.194Z,6.35
2022-08-18T15:44:01.203Z,5.25
2022-08-18T15:46:33.378Z,5.50
2022-08-18T15:49:05.401Z,5.75
2022-08-18T15:51:41.173Z,5.47
2022-08-18T15:54:12.462Z,6.22
2022-08-18T15:56:43.509Z,6.22
2022-08-18T15:59:12.714Z,5.88
2022-08-18T16:01:43.066Z,6.63
2022-08-18T16:04:15.622Z,5.80
2022-08-18T16:06:47.984Z,6.00
2022-08-18T16:09:17.950Z,6.70
2022-08-18T16:11:48.275Z,7.03
2022-08-18T16:14:17.101Z,7.32
2022-08-18T16:16:45.563Z,6.50
2022-08-18T16:19:14.576Z,6.35
2022-08-18T16:21:43.290Z,6.30
2022-08-18T16:24:14.462Z,7.15
2022-08-18T16:26:44.300Z,8.02
2022-08-18T16:29:14.510Z,6.95
2022-08-18T16:31:42.897Z,6.30
2022-08-18T16:34:11.894Z,7.20
2022-08-18T16:36:40.761Z,6.53
2022-08-18T16:39:09.707Z,7.00
2022-08-18T16:41:38.755Z,6.72
2022-08-18T16:44:07.639Z,7.03
2022-08-18T16:46:37.596Z,7.15
2022-08-18T16:49:08.120Z,7.50
2022-08-18T16:51:38.354Z,6.88
2022-08-18T16:54:07.147Z,6.80
2022-08-18T16:56:36.717Z,7.73
2022-08-18T16:59:23.256Z,7.97
2022-08-18T17:02:10.762Z,7.53
2022-08-18T17:04:39.669Z,7.68
2022-08-18T17:07:08.779Z,8.17
2022-08-18T17:09:37.609Z,7.20
2022-08-18T17:12:06.718Z,7.40
2022-08-18T17:14:36.942Z,8.17
2022-08-18T17:17:07.769Z,10.10
2022-08-18T17:19:37.669Z,7.30
2022-08-18T17:22:08.504Z,7.75
2022-08-18T17:24:37.958Z,8.48
2022-08-18T17:27:27.244Z,9.23
2022-08-18T17:30:04.024Z,8.52
2022-08-18T17:32:39.747Z,8.98
2022-08-18T17:35:14.499Z,7.82
2022-08-18T17:37:48.673Z,8.60
2022-08-18T17:40:21.135Z,8.38
2022-08-18T17:42:51.737Z,8.18
2022-08-18T17:45:22.198Z,8.27
2022-08-18T17:47:56.423Z,9.05
2022-08-18T17:50:46.005Z,8.70
2022-08-18T17:53:15.670Z,8.80
2022-08-18T17:58:20.543Z,9.05
2022-08-18T18:00:49.234Z,8.82
2022-08-18T18:03:19.602Z,8.55
2022-08-18T18:05:52.838Z,9.18
2022-08-18T18:08:21.656Z,8.85
2022-08-18T18:11:07.660Z,9.30
2022-08-18T18:13:36.560Z,9.77
2022-08-18T18:16:22.467Z,9.25
2022-08-18T18:18:59.891Z,9.55
2022-08-18T18:21:55.328Z,8.85
2022-08-18T18:24:31.987Z,9.30
2022-08-18T18:27:01.194Z,9.38
2022-08-18T18:29:37.387Z,8.05
2022-08-18T18:32:25.133Z,11.07
2022-08-18T18:35:13.181Z,8.88
2022-08-18T18:37:48.501Z,9.13
2022-08-18T18:40:27.925Z,10.68
2022-08-18T18:42:57.525Z,9.23
2022-08-18T18:45:29.024Z,9.80
2022-08-18T18:48:06.470Z,10.40
2022-08-18T18:50:55.867Z,10.80
2022-08-18T18:53:43.348Z,10.40
2022-08-18T18:56:18.955Z,9.80
2022-08-18T18:58:58.453Z,10.57
2022-08-18T19:01:33.410Z,10.10
2022-08-18T19:04:07.295Z,9.48
2022-08-18T19:06:47.448Z,10.68
2022-08-18T19:11:57.748Z,10.48
2022-08-18T19:14:34.715Z,10.10
2022-08-18T19:17:09.504Z,13.32
2022-08-18T19:19:43.060Z,13.02
2022-08-18T19:22:20.942Z,12.77
2022-08-18T19:24:58.238Z,10.32
2022-08-18T19:27:31.055Z,10.68
2022-08-18T19:30:03.479Z,10.65
2022-08-18T19:32:37.392Z,11.23
2022-08-18T19:35:12.103Z,10.18
2022-08-18T19:37:54.877Z,9.63
2022-08-18T19:40:29.220Z,10.63
2022-08-18T19:43:01.578Z,9.18
2022-08-18T19:45:35.714Z,9.93
2022-08-18T19:48:13.145Z,10.63
2022-08-18T19:50:50.549Z,10.77
2022-08-18T19:53:48.226Z,10.57
2022-08-18T19:56:33.667Z,11.00
2022-08-18T19:59:19.386Z,11.45
2022-08-18T20:01:59.326Z,10.48
2022-08-18T20:04:39.079Z,10.18
2022-08-18T20:07:27.768Z,10.75
2022-08-18T20:10:22.055Z,10.02
2022-08-18T20:13:20.162Z,11.88
2022-08-18T20:16:13.132Z,9.10
2022-08-18T20:18:44.025Z,10.25
2022-08-18T20:21:41.363Z,10.65
2022-08-18T20:24:18.489Z,10.88
2022-08-18T20:26:50.541Z,10.20
2022-08-18T20:29:22.179Z,9.93
2022-08-18T20:31:59.994Z,10.43
2022-08-18T20:34:31.129Z,10.73
2022-08-18T20:37:01.880Z,11.55
2022-08-18T20:39:45.403Z,11.38
2022-08-18T20:42:47.687Z,10.48
2022-08-18T20:45:36.637Z,11.23
2022-08-18T20:48:24.929Z,13.77
2022-08-18T20:51:02.565Z,11.05
2022-08-18T20:53:58.818Z,12.38
2022-08-18T20:56:44.044Z,11.57
2022-08-18T20:59:21.311Z,10.60
2022-08-18T21:01:58.127Z,11.77
2022-08-18T21:04:48.467Z,10.75
2022-08-18T21:10:12.702Z,11.68
2022-08-18T21:12:52.100Z,11.23
2022-08-18T21:15:24.429Z,10.73
2022-08-18T21:18:01.122Z,10.45
2022-08-18T21:20:30.111Z,11.20
2022-08-18T21:23:04.424Z,11.13
2022-08-18T21:25:33.822Z,9.63
2022-08-18T21:28:04.130Z,11.50
2022-08-18T21:30:34.992Z,11.02
2022-08-18T21:33:20.197Z,11.00
2022-08-18T21:35:49.194Z,10.75
2022-08-18T21:38:27.164Z,10.60
2022-08-18T21:41:00.097Z,11.45
2022-08-18T21:43:39.216Z,12.00
2022-08-18T21:46:10.446Z,11.07
2022-08-18T21:48:48.932Z,11.88
2022-08-18T21:51:22.925Z,11.88
2022-08-18T21:53:53.429Z,10.43
2022-08-18T21:56:24.947Z,10.77
2022-08-18T21:59:07.274Z,10.52
2022-08-18T22:01:39.668Z,10.90
2022-08-18T22:04:24.351Z,10.63
2022-08-18T22:06:54.837Z,10.45
2022-08-18T22:09:44.799Z,10.57
2022-08-18T22:12:36.924Z,11.25
2022-08-18T22:15:10.504Z,9.80
2022-08-18T22:17:52.090Z,9.77
2022-08-18T22:20:45.135Z,10.10
2022-08-18T22:23:42.418Z,10.07
2022-08-18T22:26:14.121Z,10.88
2022-08-18T22:28:47.468Z,11.35
2022-08-18T22:31:20.861Z,11.30
2022-08-18T22:33:52.024Z,10.65
2022-08-18T22:36:22.917Z,11.45
2022-08-18T22:38:52.511Z,11.30
2022-08-18T22:41:22.218Z,10.43
2022-08-18T22:43:54.988Z,11.02
2022-08-18T22:46:25.201Z,12.00
2022-08-18T22:48:55.842Z,11.13
2022-08-18T22:51:26.518Z,10.57
2022-08-18T22:53:56.869Z,10.60
2022-08-18T22:56:34.391Z,10.70
2022-08-18T22:59:13.621Z,10.38
2022-08-18T23:01:46.961Z,10.70
2022-08-18T23:04:18.555Z,10.02
2022-08-18T23:06:52.478Z,10.10
2022-08-18T23:09:23.421Z,10.45
2022-08-18T23:11:52.753Z,11.63
2022-08-18T23:14:22.338Z,10.13
2022-08-18T23:16:50.875Z,11.82
2022-08-18T23:19:22.291Z,11.55
2022-08-18T23:21:51.801Z,10.98
2022-08-18T23:24:22.061Z,10.80
2022-08-18T23:29:22.700Z,10.77
2022-08-18T23:31:51.811Z,10.85
2022-08-18T23:34:23.999Z,10.90
2022-08-18T23:36:55.574Z,11.40
2022-08-18T23:39:24.429Z,10.95
2022-08-18T23:41:53.512Z,11.40
2022-08-18T23:44:23.894Z,11.80
2022-08-18T23:46:56.460Z,11.73
2022-08-18T23:49:26.809Z,10.98
2022-08-18T23:51:57.764Z,11.63
2022-08-18T23:54:29.919Z,11.27
2022-08-18T23:56:58.905Z,11.27
2022-08-18T23:59:29.148Z,11.88
